Aviation Digital Data Service (ADDS)

Output produced by METARs form (0941 UTC 17 November 2018)
found at http://www.aviationweather.gov/metar/data/
 
RCTP 170930Z 05005KT 9999 FEW010 BKN040 22/21 Q1016 NOSIG RMK A3002
TAF COR RCTP 170503Z 1706/1812 06013KT 7000 SCT007 BKN013 BKN030 
     TEMPO 1706/1708 4000 RA BR SCT003 BKN008 BKN020 
     BECMG 1708/1710 FEW010 SCT016 BKN032 
     TEMPO 1717/1723 09008KT 4000 BR SCT006 BKN011 BKN030 
     BECMG 1723/1801 03008KT 
     BECMG 1810/1812 33005KT 4000 BR SCT005 BKN009 BKN020
       
RCMQ 170930Z 01010KT 9000 FEW010 SCT025 BKN040 22/20 Q1015 NOSIG RMK A3000
TAF RCMQ 170500Z 1706/1806 01013KT 9999 FEW010 SCT025 BKN040 TX26/1705Z
TN19/1721Z 
     BECMG 1708/1711 01008KT 8000 
     BECMG 1712/1715 5000 BR FEW012 SCT040 
     TEMPO 1718/1723 3200 BR 
     BECMG 1800/1803 01015KT 7000 FEW010 SCT025 BKN040
       
RCFN 170930Z 05005KT 010V090 9999 FEW014 SCT030 BKN050 24/22 Q1016 NOSIG RMK A3003
TAF RCFN 170500Z 1706/1806 34005KT 9999 FEW010 SCT020 BKN032 
     TEMPO 1706/1710 05005KT 5000 RA FEW008 BKN016 BKN035 
     BECMG 1801/1803 09005KT
       
RCKH 170930Z 27004KT 200V320 9000 FEW015 BKN035 BKN060 28/22 Q1014 NOSIG RMK A2996
TAF RCKH 170500Z 1706/1812 35005KT 7000 FEW015 BKN032 
     TEMPO 1706/1712 28007KT 4000 HZ 
     BECMG 1716/1718 05005KT 4000 BR 
     TEMPO 1720/1724 2800 BR 
     BECMG 1801/1803 27005KT 7000 
     BECMG 1809/1811 33005KT
       
RCSS 170930Z 10011KT 9999 FEW016 SCT025 BKN050 21/20 Q1016 NOSIG RMK A3003
TAF RCSS 170500Z 1706/1806 09008KT 9999 FEW008 SCT020 BKN032 
     TEMPO 1706/1712 4000 RA BR FEW007 BKN017 BKN040
       
RCNN 170930Z 34010KT 9999 FEW012 BKN080 25/18 Q1014 NOSIG RMK A2997
TAF RCNN 170500Z 1706/1806 30010KT 8000 FEW012 BKN060 TX30/1706Z TN22/1719Z 
     BECMG 1710/1713 36004KT 
     BECMG 1714/1717 5000 BR FEW012 SCT050 
     BECMG 1718/1721 3200 BR FEW012 BKN050 
     BECMG 1800/1802 34006KT 5000 BR